Time;durP1;ratioP1;P1;durP2;ratioP2;P2;SDS_P1;SDS_P2;PMS_P1;PMS_P2;Temp;Humidity;BMP_temperature;BMP_pressure;BME280_temperature;BME280_humidity;BME280_pressure;Samples;Min_cycle;Max_cycle;Signal;HPM_P1;HPM_P2
2022/07/08 00:00:35;;;;;;;2.63;0.85;;;17.40;64.40;;;;;;5053194;28;20461;-63
2022/07/08 00:03:04;;;;;;;6.38;1.15;;;17.40;64.40;;;;;;5043846;28;20055;-63
2022/07/08 00:05:31;;;;;;;4.03;0.90;;;17.40;64.40;;;;;;5044866;28;20063;-64
2022/07/08 00:07:58;;;;;;;2.15;0.63;;;17.40;63.80;;;;;;5039940;28;20049;-63
2022/07/08 00:10:26;;;;;;;6.45;1.48;;;17.40;63.40;;;;;;5051994;28;20746;-63
2022/07/08 00:12:53;;;;;;;3.38;1.08;;;17.40;63.10;;;;;;5051476;28;20041;-64
2022/07/08 00:15:22;;;;;;;4.53;1.35;;;17.40;62.50;;;;;;5049677;28;20052;-64
2022/07/08 00:17:49;;;;;;;3.47;1.00;;;17.40;62.50;;;;;;5049525;28;20060;-62
2022/07/08 00:20:16;;;;;;;3.45;1.27;;;17.30;62.60;;;;;;5049144;28;20045;-63
2022/07/08 00:22:43;;;;;;;6.47;1.88;;;17.30;62.60;;;;;;5049864;28;20041;-61
2022/07/08 00:25:10;;;;;;;7.45;1.73;;;17.40;62.70;;;;;;5048742;28;20052;-63
2022/07/08 00:27:37;;;;;;;6.63;1.42;;;17.40;62.60;;;;;;5052316;28;20052;-61
2022/07/08 00:30:06;;;;;;;8.23;2.38;;;17.40;62.80;;;;;;5048597;28;20800;-62
2022/07/08 00:32:36;;;;;;;5.72;2.05;;;17.30;63.10;;;;;;5049333;28;20045;-64
2022/07/08 00:35:04;;;;;;;5.93;1.85;;;17.30;63.10;;;;;;5047492;28;20099;-64
2022/07/08 00:37:30;;;;;;;5.10;1.83;;;17.40;62.60;;;;;;5050066;28;20506;-63
2022/07/08 00:39:58;;;;;;;6.30;1.73;;;17.40;62.70;;;;;;5052147;28;20052;-62
2022/07/08 00:42:24;;;;;;;7.63;2.00;;;17.30;62.90;;;;;;5046156;28;20041;-63
2022/07/08 00:44:51;;;;;;;10.30;2.22;;;17.30;63.10;;;;;;5047272;28;20121;-63
2022/07/08 00:47:18;;;;;;;6.80;1.77;;;17.30;62.80;;;;;;5047487;28;20487;-62
2022/07/08 00:49:47;;;;;;;7.15;2.00;;;17.40;62.50;;;;;;5045990;28;20048;-63
2022/07/08 00:52:14;;;;;;;3.92;1.58;;;17.40;62.60;;;;;;5042689;28;20384;-64
2022/07/08 00:54:42;;;;;;;6.20;2.08;;;17.40;62.40;;;;;;5049292;28;20056;-63
2022/07/08 00:57:09;;;;;;;11.40;2.28;;;17.40;62.30;;;;;;5039458;28;20064;-63
2022/07/08 00:59:36;;;;;;;5.53;1.30;;;17.50;62.00;;;;;;5047822;28;20048;-67
2022/07/08 01:02:03;;;;;;;3.92;1.38;;;17.40;61.70;;;;;;5041219;28;20041;-63
2022/07/08 01:04:31;;;;;;;7.28;2.92;;;17.40;61.70;;;;;;5045747;28;20040;-61
2022/07/08 01:06:59;;;;;;;7.70;2.25;;;17.40;62.20;;;;;;5048365;28;20129;-64
2022/07/08 01:09:26;;;;;;;4.00;1.60;;;17.40;62.20;;;;;;5039919;28;20045;-64
2022/07/08 01:11:53;;;;;;;10.27;1.90;;;17.30;62.30;;;;;;5046469;28;20049;-64
2022/07/08 01:14:20;;;;;;;5.63;1.83;;;17.30;62.50;;;;;;5046284;28;20053;-62
2022/07/08 01:16:48;;;;;;;4.55;1.77;;;17.30;62.30;;;;;;5047052;28;20049;-61
2022/07/08 01:19:15;;;;;;;9.15;2.08;;;17.30;62.30;;;;;;5047351;28;20048;-63
2022/07/08 01:21:44;;;;;;;7.13;1.60;;;17.30;62.50;;;;;;5047733;28;20442;-61
2022/07/08 01:24:11;;;;;;;5.78;1.20;;;17.20;62.70;;;;;;5047581;28;20053;-62
2022/07/08 01:26:38;;;;;;;3.28;1.13;;;17.20;62.60;;;;;;5040959;28;20045;-63
2022/07/08 01:29:05;;;;;;;5.38;1.15;;;17.20;62.30;;;;;;5047784;28;20064;-61
2022/07/08 01:31:31;;;;;;;5.60;1.50;;;17.30;61.90;;;;;;5046170;28;20044;-62
2022/07/08 01:33:58;;;;;;;6.22;1.80;;;17.30;61.90;;;;;;5047800;28;20037;-63
2022/07/08 01:36:25;;;;;;;5.63;1.48;;;17.30;62.20;;;;;;5047317;28;20051;-63
2022/07/08 01:38:54;;;;;;;6.38;1.60;;;17.30;62.40;;;;;;5050879;28;20150;-64
2022/07/08 01:41:20;;;;;;;8.50;1.52;;;17.30;62.30;;;;;;5046445;28;20037;-62
2022/07/08 01:43:47;;;;;;;5.63;1.30;;;17.20;62.30;;;;;;5053179;28;20047;-63
2022/07/08 01:46:14;;;;;;;12.40;1.75;;;17.30;62.30;;;;;;5055405;28;20052;-62
2022/07/08 01:48:41;;;;;;;2.15;0.80;;;17.30;62.20;;;;;;5054003;28;20076;-64
2022/07/08 01:51:08;;;;;;;4.78;1.08;;;17.20;62.60;;;;;;5051130;28;20052;-61
2022/07/08 01:53:35;;;;;;;5.13;1.52;;;17.20;62.90;;;;;;5054314;28;20049;-62
2022/07/08 01:56:04;;;;;;;5.60;1.25;;;17.20;63.10;;;;;;5056066;28;20055;-63
2022/07/08 01:58:30;;;;;;;4.88;1.17;;;17.10;63.10;;;;;;5052437;28;20053;-61
2022/07/08 02:00:57;;;;;;;3.38;1.27;;;17.20;62.80;;;;;;5047050;28;20052;-62
2022/07/08 02:03:25;;;;;;;5.78;1.23;;;17.10;62.90;;;;;;5058067;28;20193;-61
2022/07/08 02:05:52;;;;;;;3.17;1.00;;;17.20;62.80;;;;;;5056016;28;20048;-62
2022/07/08 02:08:19;;;;;;;4.65;1.15;;;17.10;62.90;;;;;;5058235;28;20041;-64
2022/07/08 02:13:31;;;;;;;3.33;0.90;;;17.10;62.90;;;;;;5057963;28;20045;-63
2022/07/08 02:15:58;;;;;;;4.57;0.95;;;17.10;63.10;;;;;;5055995;28;20049;-61
2022/07/08 02:18:25;;;;;;;2.05;0.65;;;17.10;62.90;;;;;;5057842;28;20061;-63
2022/07/08 02:20:52;;;;;;;3.35;1.13;;;17.10;63.00;;;;;;5056759;28;20041;-63
2022/07/08 02:23:19;;;;;;;7.93;0.88;;;17.10;62.90;;;;;;5049847;28;20493;-63
2022/07/08 02:25:46;;;;;;;3.90;1.20;;;17.10;63.00;;;;;;5045904;28;20399;-62
2022/07/08 02:28:13;;;;;;;3.38;0.80;;;17.20;62.70;;;;;;5048843;28;20684;-62
2022/07/08 02:30:41;;;;;;;4.65;0.70;;;17.10;62.30;;;;;;5056314;28;20045;-63
2022/07/08 02:33:08;;;;;;;1.38;0.60;;;17.10;62.50;;;;;;5055973;28;20143;-62
2022/07/08 02:35:35;;;;;;;6.28;0.80;;;17.10;62.80;;;;;;5055191;28;20111;-62
2022/07/08 02:38:02;;;;;;;6.35;0.80;;;17.10;62.60;;;;;;5054857;28;20045;-62
2022/07/08 02:40:29;;;;;;;3.47;0.70;;;17.10;62.50;;;;;;5050848;28;20055;-63
2022/07/08 02:42:56;;;;;;;4.90;0.82;;;17.20;62.40;;;;;;5051748;28;20406;-62
2022/07/08 02:45:23;;;;;;;5.40;0.75;;;17.10;62.60;;;;;;5054517;28;20052;-61
2022/07/08 02:47:51;;;;;;;3.72;1.10;;;17.10;62.80;;;;;;5056111;28;20044;-62
2022/07/08 02:50:18;;;;;;;2.35;0.80;;;17.00;62.90;;;;;;5055351;28;20048;-61
2022/07/08 02:52:45;;;;;;;2.92;0.85;;;17.00;62.80;;;;;;5055171;28;20071;-63
2022/07/08 02:55:12;;;;;;;4.75;1.00;;;17.10;63.10;;;;;;5053690;28;20052;-62
2022/07/08 02:57:39;;;;;;;3.00;0.80;;;17.00;63.20;;;;;;5054859;28;20049;-61
2022/07/08 03:00:07;;;;;;;3.08;0.75;;;17.00;63.10;;;;;;5052458;28;20056;-63
2022/07/08 03:02:34;;;;;;;4.18;0.73;;;17.00;63.10;;;;;;5055735;28;20085;-63
2022/07/08 03:05:02;;;;;;;4.75;0.85;;;17.00;63.10;;;;;;5055676;28;20095;-64
2022/07/08 03:07:30;;;;;;;7.20;0.82;;;17.00;62.90;;;;;;5057385;28;20065;-62
2022/07/08 03:09:57;;;;;;;6.25;1.27;;;17.00;63.10;;;;;;5055374;28;21141;-62
2022/07/08 03:12:25;;;;;;;3.10;0.77;;;17.00;63.10;;;;;;5057925;28;20060;-62
2022/07/08 03:14:52;;;;;;;3.15;0.50;;;17.00;63.00;;;;;;5053388;28;20064;-60
2022/07/08 03:17:19;;;;;;;4.22;0.70;;;16.90;63.00;;;;;;5044880;28;20059;-63
2022/07/08 03:19:46;;;;;;;2.38;0.57;;;16.90;63.20;;;;;;5049867;28;20047;-61
2022/07/08 03:22:15;;;;;;;2.80;1.05;;;16.90;63.10;;;;;;5044169;28;20052;-61
2022/07/08 03:24:42;;;;;;;2.28;0.55;;;16.80;63.00;;;;;;5045792;28;20040;-63
2022/07/08 03:27:09;;;;;;;5.15;0.93;;;16.90;62.90;;;;;;5040166;28;20045;-62
2022/07/08 03:29:36;;;;;;;3.17;0.60;;;16.90;63.20;;;;;;5051651;28;20127;-67
2022/07/08 03:32:03;;;;;;;4.50;0.70;;;16.90;63.00;;;;;;5056585;28;20048;-63
2022/07/08 03:34:30;;;;;;;5.47;0.88;;;16.90;63.20;;;;;;5055073;28;20047;-61
2022/07/08 03:36:57;;;;;;;3.00;0.57;;;16.90;63.40;;;;;;5057680;28;20047;-62
2022/07/08 03:39:25;;;;;;;2.05;0.50;;;16.90;63.40;;;;;;5052663;28;20060;-64
2022/07/08 03:41:51;;;;;;;2.38;0.80;;;16.90;63.70;;;;;;5049096;28;20051;-61
2022/07/08 03:44:18;;;;;;;3.63;0.57;;;16.90;63.60;;;;;;5049113;28;20040;-61
2022/07/08 03:46:45;;;;;;;5.00;0.77;;;16.80;63.50;;;;;;5046769;28;20435;-62
2022/07/08 03:49:12;;;;;;;6.15;0.80;;;16.90;63.60;;;;;;5048324;28;20251;-64
2022/07/08 03:51:39;;;;;;;5.70;1.27;;;16.80;63.70;;;;;;5051647;28;20037;-62
2022/07/08 03:54:06;;;;;;;5.53;0.88;;;16.80;63.90;;;;;;5054170;28;20040;-61
2022/07/08 03:56:34;;;;;;;3.22;1.13;;;16.80;63.80;;;;;;5046857;28;20350;-64
2022/07/08 03:59:02;;;;;;;3.17;0.90;;;16.80;63.80;;;;;;5048602;28;20135;-63
2022/07/08 04:01:29;;;;;;;4.03;0.60;;;16.80;63.80;;;;;;5045444;28;20127;-60
2022/07/08 04:03:56;;;;;;;5.18;0.85;;;16.70;63.70;;;;;;5046851;28;20049;-61
2022/07/08 04:06:23;;;;;;;3.05;0.70;;;16.80;63.70;;;;;;5046021;28;20041;-61
2022/07/08 04:08:50;;;;;;;3.13;0.80;;;16.80;63.20;;;;;;5046083;28;20141;-63
2022/07/08 04:11:17;;;;;;;3.45;0.85;;;16.80;63.30;;;;;;5048199;28;20100;-61
2022/07/08 04:13:46;;;;;;;4.78;0.70;;;16.70;63.40;;;;;;5050440;28;20044;-64
2022/07/08 04:16:13;;;;;;;5.40;0.80;;;16.70;63.50;;;;;;5056911;28;20055;-62
2022/07/08 04:18:41;;;;;;;2.95;0.70;;;16.70;63.30;;;;;;5053211;28;20145;-64
2022/07/08 04:21:08;;;;;;;4.18;0.80;;;16.70;63.60;;;;;;5055344;28;20048;-63
2022/07/08 04:23:36;;;;;;;6.60;0.60;;;16.80;63.50;;;;;;5041123;28;20040;-62
2022/07/08 04:26:03;;;;;;;6.05;0.77;;;16.80;63.40;;;;;;5053966;28;20065;-62
2022/07/08 04:28:30;;;;;;;3.47;0.65;;;16.80;63.50;;;;;;5053916;28;20459;-63
2022/07/08 04:30:58;;;;;;;2.28;0.50;;;16.80;63.40;;;;;;5054823;28;20049;-63
2022/07/08 04:33:25;;;;;;;5.63;0.77;;;16.80;63.60;;;;;;5049602;28;20041;-63
2022/07/08 04:35:52;;;;;;;3.58;0.60;;;16.80;63.50;;;;;;5045408;28;20048;-62
2022/07/08 04:38:19;;;;;;;2.50;0.55;;;16.80;63.60;;;;;;5046643;28;20044;-63
2022/07/08 04:40:46;;;;;;;3.50;0.95;;;16.70;63.50;;;;;;5045351;28;20794;-63
2022/07/08 04:43:13;;;;;;;3.08;0.77;;;16.80;63.50;;;;;;5048610;28;20051;-65
2022/07/08 04:45:40;;;;;;;2.60;0.65;;;16.80;63.40;;;;;;5045621;28;20096;-63
2022/07/08 04:48:08;;;;;;;3.42;0.68;;;16.80;63.40;;;;;;5045958;28;20056;-63
2022/07/08 04:50:35;;;;;;;5.07;0.90;;;16.80;63.30;;;;;;5046738;28;20044;-63
2022/07/08 04:53:02;;;;;;;3.85;0.98;;;16.90;63.20;;;;;;5045572;28;20048;-63
2022/07/08 04:55:29;;;;;;;4.32;0.82;;;16.90;63.20;;;;;;5048845;28;20727;-62
2022/07/08 04:57:57;;;;;;;4.53;0.70;;;16.90;63.00;;;;;;5050233;28;20098;-61
2022/07/08 05:00:25;;;;;;;3.13;0.60;;;17.00;62.60;;;;;;5046544;28;20476;-62
2022/07/08 05:02:52;;;;;;;0.70;0.43;;;16.90;62.70;;;;;;5047045;28;20125;-63
2022/07/08 05:05:21;;;;;;;4.78;0.82;;;17.00;62.60;;;;;;5047794;28;20053;-62
2022/07/08 05:07:48;;;;;;;5.13;0.60;;;17.00;62.50;;;;;;5044002;28;20507;-63
2022/07/08 05:10:16;;;;;;;1.00;0.47;;;16.90;62.50;;;;;;5050086;28;20048;-62
2022/07/08 05:12:43;;;;;;;5.45;0.43;;;17.00;62.50;;;;;;5055525;28;20048;-62
2022/07/08 05:15:11;;;;;;;4.68;0.60;;;17.00;62.50;;;;;;5050783;28;20103;-61
2022/07/08 05:17:38;;;;;;;4.85;0.93;;;17.00;62.40;;;;;;5051960;28;20375;-62
2022/07/08 05:20:07;;;;;;;3.97;0.73;;;17.10;62.00;;;;;;5059072;28;20057;-63
2022/07/08 05:22:36;;;;;;;1.27;0.50;;;17.10;61.70;;;;;;5050420;28;20047;-62
2022/07/08 05:25:04;;;;;;;2.38;0.60;;;17.10;61.60;;;;;;5042384;28;20040;-64
2022/07/08 05:27:31;;;;;;;6.18;1.00;;;17.10;61.00;;;;;;5052183;28;20057;-64
2022/07/08 05:29:58;;;;;;;3.55;0.60;;;17.10;61.00;;;;;;5044936;28;20609;-61
2022/07/08 05:32:25;;;;;;;5.13;0.80;;;17.10;61.10;;;;;;5046088;28;20032;-62
2022/07/08 05:34:52;;;;;;;3.50;0.50;;;17.10;61.20;;;;;;5049384;28;20044;-61
2022/07/08 05:37:19;;;;;;;3.25;0.70;;;17.00;61.40;;;;;;5045526;28;20049;-63
2022/07/08 05:39:47;;;;;;;3.53;0.88;;;17.00;61.70;;;;;;5053491;28;20060;-62
2022/07/08 05:42:14;;;;;;;3.47;0.63;;;17.10;61.70;;;;;;5049360;28;20055;-62
2022/07/08 05:44:41;;;;;;;4.25;0.70;;;17.10;61.30;;;;;;5043351;28;20063;-63
2022/07/08 05:47:09;;;;;;;2.67;0.45;;;17.10;61.00;;;;;;5042710;28;20054;-62
2022/07/08 05:49:37;;;;;;;1.92;0.38;;;17.20;61.00;;;;;;5042895;28;20129;-68
2022/07/08 05:52:04;;;;;;;5.40;0.82;;;17.20;60.90;;;;;;5045148;28;20350;-62
2022/07/08 05:54:31;;;;;;;3.45;0.70;;;17.20;60.90;;;;;;5044679;28;20049;-64
2022/07/08 05:57:00;;;;;;;2.97;0.73;;;17.20;60.90;;;;;;5042158;28;20060;-64
2022/07/08 05:59:31;;;;;;;2.50;0.63;;;17.20;60.90;;;;;;5051955;28;20057;-62
2022/07/08 06:01:58;;;;;;;3.15;0.68;;;17.20;61.20;;;;;;5049668;28;20111;-62
2022/07/08 06:04:24;;;;;;;2.97;0.70;;;17.30;61.20;;;;;;5057240;28;20041;-61
2022/07/08 06:06:51;;;;;;;5.72;0.85;;;17.30;60.90;;;;;;5068509;28;20391;-62
2022/07/08 06:09:18;;;;;;;2.10;0.43;;;17.50;60.80;;;;;;5054354;28;20068;-63
2022/07/08 06:11:45;;;;;;;1.48;0.47;;;17.50;60.40;;;;;;5053641;28;20751;-64
2022/07/08 06:14:14;;;;;;;5.22;0.70;;;17.60;60.10;;;;;;5054892;28;20054;-61
2022/07/08 06:16:41;;;;;;;2.30;0.50;;;17.60;59.90;;;;;;5048834;28;20385;-63
2022/07/08 06:19:08;;;;;;;1.85;0.60;;;17.60;59.80;;;;;;5045316;28;20149;-63
2022/07/08 06:21:35;;;;;;;2.45;0.73;;;17.60;59.70;;;;;;5045275;28;20114;-63
2022/07/08 06:24:02;;;;;;;2.20;0.85;;;17.70;59.50;;;;;;5043194;28;20040;-63
2022/07/08 06:26:30;;;;;;;4.45;0.75;;;17.70;59.50;;;;;;5042980;28;20052;-64
2022/07/08 06:28:57;;;;;;;3.83;1.00;;;17.70;59.10;;;;;;5045324;28;20169;-63
2022/07/08 06:31:25;;;;;;;3.83;0.90;;;17.70;59.10;;;;;;5046948;28;20132;-62
2022/07/08 06:33:56;;;;;;;2.33;0.52;;;17.90;59.20;;;;;;5053745;28;20072;-63
2022/07/08 06:36:23;;;;;;;3.90;0.70;;;17.90;58.10;;;;;;5057218;28;20049;-61
2022/07/08 06:38:50;;;;;;;5.03;1.30;;;18.00;58.20;;;;;;5046276;28;20059;-63
2022/07/08 06:41:17;;;;;;;6.65;1.30;;;18.10;58.20;;;;;;5052118;28;20049;-61
2022/07/08 06:43:44;;;;;;;3.90;1.10;;;18.10;58.20;;;;;;5046558;28;20452;-62
2022/07/08 06:46:12;;;;;;;4.15;1.80;;;18.20;57.80;;;;;;5055805;28;20080;-61
2022/07/08 06:48:40;;;;;;;4.05;1.05;;;18.30;57.70;;;;;;5049121;28;20045;-63
2022/07/08 06:51:07;;;;;;;3.40;1.10;;;18.30;57.30;;;;;;5044677;28;20075;-61
2022/07/08 06:56:15;;;;;;;5.40;0.70;;;18.40;56.80;;;;;;5045079;28;20056;-63
2022/07/08 06:58:42;;;;;;;1.92;0.75;;;18.30;57.00;;;;;;5052630;28;20600;-63
2022/07/08 07:01:10;;;;;;;6.32;0.82;;;18.40;57.20;;;;;;5050230;28;20129;-62
2022/07/08 07:03:37;;;;;;;3.13;0.68;;;18.50;57.00;;;;;;5056750;28;20055;-64
2022/07/08 07:06:06;;;;;;;2.85;0.60;;;18.50;56.70;;;;;;5060783;28;20048;-62
2022/07/08 07:08:33;;;;;;;2.57;0.80;;;18.60;56.90;;;;;;5056131;28;20050;-61
2022/07/08 07:11:00;;;;;;;5.05;0.95;;;18.70;56.80;;;;;;5051552;28;20534;-61
2022/07/08 07:13:27;;;;;;;3.25;0.70;;;18.70;56.30;;;;;;5050699;28;20828;-62
2022/07/08 07:15:54;;;;;;;3.30;0.75;;;18.70;56.80;;;;;;5044630;28;20044;-61
2022/07/08 07:18:21;;;;;;;3.22;0.50;;;18.70;55.70;;;;;;5049251;28;20044;-62
2022/07/08 07:20:48;;;;;;;4.13;0.60;;;18.80;56.00;;;;;;5046067;28;20053;-62
2022/07/08 07:23:16;;;;;;;2.95;0.50;;;18.80;55.50;;;;;;5050032;28;20055;-63
2022/07/08 07:25:43;;;;;;;3.83;0.50;;;18.80;55.20;;;;;;5046996;28;20054;-61
2022/07/08 07:28:10;;;;;;;2.88;0.60;;;18.80;55.30;;;;;;5058916;28;20049;-63
2022/07/08 07:30:37;;;;;;;4.50;0.60;;;18.80;55.60;;;;;;5055145;28;20041;-63
2022/07/08 07:33:04;;;;;;;2.85;0.57;;;18.80;55.40;;;;;;5057251;28;20143;-62
2022/07/08 07:35:31;;;;;;;4.90;0.75;;;18.90;55.40;;;;;;5056689;28;20052;-62
2022/07/08 07:37:58;;;;;;;2.42;0.55;;;18.90;55.20;;;;;;5057874;28;20060;-60
2022/07/08 07:40:26;;;;;;;3.47;0.75;;;18.90;55.50;;;;;;5054551;28;20086;-63
2022/07/08 07:42:53;;;;;;;2.65;0.65;;;18.80;55.40;;;;;;5049914;28;20045;-62
2022/07/08 07:45:20;;;;;;;1.95;0.50;;;18.80;55.50;;;;;;5048719;28;20060;-62
2022/07/08 07:47:47;;;;;;;4.95;0.70;;;18.80;55.60;;;;;;5047493;28;20052;-61
2022/07/08 07:50:14;;;;;;;3.28;0.80;;;18.80;55.60;;;;;;5045492;28;20160;-61
2022/07/08 07:52:41;;;;;;;3.08;0.73;;;18.80;55.50;;;;;;5044935;28;20052;-62
2022/07/08 07:55:09;;;;;;;3.40;0.47;;;18.80;55.80;;;;;;5048805;28;20076;-64
2022/07/08 07:57:37;;;;;;;2.38;0.70;;;18.80;55.70;;;;;;5049240;28;20056;-68
2022/07/08 08:00:06;;;;;;;2.00;0.55;;;18.80;55.60;;;;;;5046488;28;20052;-65
2022/07/08 08:02:39;;;;;;;5.85;0.80;;;18.70;55.60;;;;;;5052634;28;20040;-62
2022/07/08 08:05:06;;;;;;;2.88;0.60;;;18.70;55.70;;;;;;5057819;28;20045;-63
2022/07/08 08:07:33;;;;;;;2.58;0.75;;;18.80;55.70;;;;;;5055747;28;20053;-63
2022/07/08 08:10:01;;;;;;;6.35;0.90;;;18.80;55.60;;;;;;5054270;28;20583;-62
2022/07/08 08:12:28;;;;;;;2.75;0.50;;;18.90;55.50;;;;;;5055936;28;20057;-63
2022/07/08 08:14:57;;;;;;;3.15;0.40;;;18.90;55.40;;;;;;5048092;28;20065;-62
2022/07/08 08:17:24;;;;;;;2.78;0.60;;;18.90;55.20;;;;;;5048233;28;20047;-63
2022/07/08 08:19:51;;;;;;;6.25;0.63;;;18.90;54.80;;;;;;5050659;28;20061;-62
2022/07/08 08:22:18;;;;;;;2.53;0.75;;;18.90;54.90;;;;;;5050362;28;20052;-64
2022/07/08 08:24:45;;;;;;;1.98;0.40;;;19.00;54.40;;;;;;5046602;28;20526;-62
2022/07/08 08:27:12;;;;;;;3.65;1.08;;;19.10;54.20;;;;;;5049132;28;20048;-62
2022/07/08 08:29:39;;;;;;;3.13;0.47;;;19.10;54.20;;;;;;5043667;28;20422;-64
2022/07/08 08:32:08;;;;;;;5.38;0.65;;;19.20;54.20;;;;;;5052524;28;20072;-62
2022/07/08 08:34:35;;;;;;;4.63;0.65;;;19.30;53.70;;;;;;5057525;28;20048;-62
2022/07/08 08:37:02;;;;;;;3.20;0.70;;;19.40;53.60;;;;;;5054467;28;20075;-62
2022/07/08 08:39:29;;;;;;;3.75;0.93;;;19.40;53.80;;;;;;5052643;28;20070;-62
2022/07/08 08:41:56;;;;;;;1.38;0.52;;;19.50;53.40;;;;;;5055917;28;20049;-63
2022/07/08 08:44:23;;;;;;;3.00;0.63;;;19.60;52.90;;;;;;5048312;28;20402;-63
2022/07/08 08:46:51;;;;;;;2.45;0.70;;;;;;;;;;5047088;28;20149;-62
2022/07/08 08:49:20;;;;;;;5.40;0.68;;;19.60;53.00;;;;;;5048585;28;20047;-62
2022/07/08 08:51:50;;;;;;;2.10;0.43;;;19.70;52.70;;;;;;5045291;28;20288;-63
2022/07/08 08:54:17;;;;;;;;;;;19.70;52.90;;;;;;5050434;28;20044;-61
2022/07/08 08:56:47;;;;;;;2.15;0.50;;;19.80;52.60;;;;;;5045194;28;20002;-63
2022/07/08 08:59:15;;;;;;;4.40;0.90;;;19.80;52.50;;;;;;5048374;28;20048;-61
2022/07/08 09:01:42;;;;;;;4.93;0.77;;;19.80;52.30;;;;;;5051517;28;20550;-62
2022/07/08 09:04:11;;;;;;;2.88;0.77;;;20.00;52.10;;;;;;5055551;28;20099;-62
2022/07/08 09:06:40;;;;;;;4.10;0.70;;;20.10;52.20;;;;;;5059090;28;20418;-62
2022/07/08 09:09:08;;;;;;;0.90;0.55;;;20.20;51.90;;;;;;5051135;28;20465;-65
2022/07/08 09:11:35;;;;;;;3.53;1.15;;;20.30;52.10;;;;;;5057587;28;20056;-62
2022/07/08 09:14:16;;;;;;;7.65;1.50;;;20.50;52.10;;;;;;5048133;28;20045;-63
2022/07/08 09:17:09;;;;;;;3.88;1.38;;;20.50;52.00;;;;;;5046942;28;21394;-62
2022/07/08 09:19:37;;;;;;;5.10;1.17;;;20.60;51.60;;;;;;5031691;28;20260;-64
2022/07/08 09:22:07;;;;;;;4.13;0.70;;;20.60;51.50;;;;;;5048121;28;20037;-63
2022/07/08 09:24:34;;;;;;;6.10;1.30;;;20.60;51.10;;;;;;5047204;28;20146;-63
2022/07/08 09:27:04;;;;;;;5.72;1.48;;;20.60;51.40;;;;;;5045645;28;20075;-62
2022/07/08 09:29:31;;;;;;;;;;;20.60;51.20;;;;;;5046454;28;20747;-62
2022/07/08 09:32:10;;;;;;;4.18;0.85;;;20.70;50.80;;;;;;5052358;28;20602;-63
2022/07/08 09:34:38;;;;;;;4.25;1.35;;;20.90;50.70;;;;;;5070110;28;20482;-62
2022/07/08 09:37:12;;;;;;;3.30;1.13;;;20.90;50.50;;;;;;5052145;28;20513;-63
2022/07/08 09:39:39;;;;;;;2.50;0.77;;;20.80;50.10;;;;;;5051066;28;20045;-63
2022/07/08 09:42:08;;;;;;;4.82;1.75;;;20.80;50.50;;;;;;5052746;28;20040;-62
2022/07/08 09:44:35;;;;;;;4.90;1.40;;;20.90;50.60;;;;;;5045253;28;20049;-62
2022/07/08 09:47:10;;;;;;;3.97;1.00;;;20.90;50.40;;;;;;5045575;28;20045;-63
2022/07/08 09:49:41;;;;;;;4.57;1.45;;;21.00;50.50;;;;;;5046114;28;20049;-63
2022/07/08 09:52:08;;;;;;;2.80;0.80;;;21.00;50.50;;;;;;5049453;28;20036;-63
2022/07/08 09:54:37;;;;;;;4.38;1.00;;;21.10;50.50;;;;;;5046898;28;21275;-63
2022/07/08 09:57:05;;;;;;;1.88;0.70;;;21.10;50.30;;;;;;5047321;28;20041;-63
2022/07/08 09:59:34;;;;;;;4.05;0.70;;;21.20;50.30;;;;;;5048679;28;20217;-63
2022/07/08 10:02:01;;;;;;;5.72;0.88;;;21.20;49.80;;;;;;5048550;28;20482;-61
2022/07/08 10:04:29;;;;;;;7.40;1.45;;;21.30;49.80;;;;;;5057308;28;20049;-63
2022/07/08 10:06:58;;;;;;;2.55;0.85;;;21.30;50.20;;;;;;5050739;28;20258;-61
2022/07/08 10:09:26;;;;;;;4.22;0.73;;;21.50;50.00;;;;;;5048630;28;20055;-63
2022/07/08 10:11:55;;;;;;;6.55;1.17;;;21.60;49.20;;;;;;5054678;28;20053;-62
2022/07/08 10:14:22;;;;;;;5.75;1.40;;;21.80;48.80;;;;;;5047340;28;20460;-63
2022/07/08 10:16:50;;;;;;;1.92;0.75;;;22.10;49.00;;;;;;5046500;28;20049;-63
2022/07/08 10:19:22;;;;;;;2.72;0.85;;;22.20;48.40;;;;;;5044135;28;20049;-63
2022/07/08 10:21:53;;;;;;;2.72;0.80;;;22.50;48.50;;;;;;5047627;28;20056;-63
2022/07/08 10:24:25;;;;;;;4.90;0.80;;;22.80;47.90;;;;;;5045273;28;20132;-64
2022/07/08 10:26:52;;;;;;;3.08;0.60;;;23.00;47.90;;;;;;5046636;28;20041;-62
2022/07/08 10:29:29;;;;;;;5.35;0.70;;;23.10;46.30;;;;;;5045366;28;20069;-63
2022/07/08 10:31:58;;;;;;;5.28;1.35;;;23.30;46.50;;;;;;5054107;28;20051;-63
2022/07/08 10:34:30;;;;;;;3.35;1.48;;;23.40;46.20;;;;;;5057590;28;20493;-62
2022/07/08 10:36:57;;;;;;;2.28;0.90;;;23.20;46.00;;;;;;5051588;28;20052;-62
2022/07/08 10:39:26;;;;;;;4.30;1.02;;;23.10;45.40;;;;;;5059582;28;20160;-63
2022/07/08 10:42:00;;;;;;;2.07;0.70;;;23.00;45.30;;;;;;5073537;28;20540;-63
2022/07/08 10:44:50;;;;;;;3.60;0.88;;;23.10;45.60;;;;;;5049333;28;20472;-62
2022/07/08 10:47:18;;;;;;;2.78;1.10;;;23.30;45.60;;;;;;5045907;28;20148;-61
2022/07/08 10:49:46;;;;;;;7.80;1.30;;;23.40;45.20;;;;;;5042581;28;20045;-62
2022/07/08 10:52:14;;;;;;;4.07;0.90;;;23.50;44.70;;;;;;5059267;28;20060;-63
2022/07/08 10:54:41;;;;;;;1.52;0.90;;;23.60;44.40;;;;;;5060114;28;20482;-62
2022/07/08 10:57:26;;;;;;;6.38;1.27;;;23.60;45.10;;;;;;5053265;28;20043;-63
2022/07/08 11:00:06;;;;;;;3.72;1.00;;;23.60;45.20;;;;;;5058203;28;20087;-63
2022/07/08 11:02:39;;;;;;;2.83;1.30;;;23.80;45.40;;;;;;5057063;28;20044;-61
2022/07/08 11:05:07;;;;;;;6.60;1.50;;;23.80;44.90;;;;;;5059754;28;20076;-63
2022/07/08 11:07:34;;;;;;;3.03;1.13;;;24.00;44.40;;;;;;5052228;28;20052;-64
2022/07/08 11:10:06;;;;;;;3.10;0.90;;;24.10;43.20;;;;;;5053367;28;20402;-62
2022/07/08 11:12:35;;;;;;;4.50;1.08;;;24.20;43.30;;;;;;5046628;28;20143;-63
2022/07/08 11:15:05;;;;;;;5.72;1.02;;;24.20;43.00;;;;;;5046733;28;20173;-64
2022/07/08 11:17:34;;;;;;;2.63;0.88;;;24.20;42.80;;;;;;5049189;28;20696;-62
2022/07/08 11:20:04;;;;;;;3.22;1.05;;;24.20;43.00;;;;;;5048455;28;20482;-62
2022/07/08 11:22:36;;;;;;;5.15;1.30;;;24.30;42.80;;;;;;5063352;28;20067;-62
2022/07/08 11:25:04;;;;;;;1.67;0.57;;;24.40;42.20;;;;;;5044050;28;20657;-63
2022/07/08 11:27:34;;;;;;;2.88;0.90;;;24.40;42.50;;;;;;5056743;28;20048;-64
2022/07/08 11:30:02;;;;;;;2.70;0.70;;;24.40;42.30;;;;;;5041759;28;20049;-62
2022/07/08 11:32:31;;;;;;;2.63;0.70;;;24.40;42.60;;;;;;5051891;28;20049;-62
2022/07/08 11:34:58;;;;;;;1.77;0.57;;;24.50;42.30;;;;;;5057017;28;20156;-62
2022/07/08 11:37:25;;;;;;;1.45;0.50;;;24.60;42.50;;;;;;5047247;28;20139;-64
2022/07/08 11:39:53;;;;;;;3.15;0.65;;;24.60;42.50;;;;;;5045978;28;20102;-64
2022/07/08 11:42:20;;;;;;;3.97;0.60;;;24.70;42.50;;;;;;5049586;28;20072;-62
2022/07/08 11:44:47;;;;;;;3.70;0.55;;;24.80;42.10;;;;;;5050916;28;20394;-63
2022/07/08 11:47:18;;;;;;;2.63;0.95;;;24.90;42.20;;;;;;5042407;28;20048;-62
2022/07/08 11:49:47;;;;;;;2.97;0.65;;;24.90;41.70;;;;;;5045223;28;20041;-65
2022/07/08 11:52:16;;;;;;;5.00;0.98;;;25.00;41.70;;;;;;5050445;28;20053;-63
2022/07/08 11:54:45;;;;;;;4.88;1.23;;;24.90;41.30;;;;;;5046418;28;20141;-61
2022/07/08 11:57:13;;;;;;;3.53;0.80;;;24.90;41.80;;;;;;5042510;28;20506;-61
2022/07/08 11:59:40;;;;;;;3.97;1.63;;;25.00;41.40;;;;;;5052523;28;20106;-63
2022/07/08 12:02:07;;;;;;;5.85;1.10;;;25.00;40.70;;;;;;5045872;28;20060;-63
2022/07/08 12:04:35;;;;;;;4.55;0.90;;;25.00;41.10;;;;;;5053955;28;20100;-62
2022/07/08 12:07:03;;;;;;;8.70;2.97;;;25.10;41.30;;;;;;5058099;28;20044;-64
2022/07/08 12:09:31;;;;;;;8.52;2.88;;;25.10;41.10;;;;;;5051627;28;20049;-65
2022/07/08 12:12:06;;;;;;;6.68;2.55;;;25.10;40.50;;;;;;5046162;28;20079;-63
2022/07/08 12:14:34;;;;;;;5.63;1.42;;;25.20;40.50;;;;;;5051058;28;20045;-65
2022/07/08 12:17:01;;;;;;;4.63;1.52;;;25.20;40.50;;;;;;5047056;28;20057;-62
2022/07/08 12:19:30;;;;;;;3.42;1.02;;;25.30;40.50;;;;;;5046198;28;20505;-63
2022/07/08 12:21:58;;;;;;;4.07;1.10;;;25.30;40.60;;;;;;5047447;28;21052;-64
2022/07/08 12:24:28;;;;;;;3.50;1.25;;;25.30;40.50;;;;;;5047641;28;20041;-62
2022/07/08 12:26:57;;;;;;;2.50;0.80;;;25.30;40.30;;;;;;5044229;28;20048;-63
2022/07/08 12:29:26;;;;;;;3.37;0.80;;;25.30;40.20;;;;;;5013330;28;1148780;-63
2022/07/08 12:31:53;;;;;;;1.17;0.68;;;25.30;40.30;;;;;;5054573;28;20057;-63
2022/07/08 12:34:22;;;;;;;3.17;0.70;;;25.30;39.90;;;;;;5052496;28;20133;-62
2022/07/08 12:36:50;;;;;;;4.03;0.90;;;25.30;40.10;;;;;;5053416;28;20041;-64
2022/07/08 12:39:18;;;;;;;2.97;0.63;;;25.30;39.90;;;;;;5049649;28;20060;-64
2022/07/08 12:42:00;;;;;;;4.82;0.98;;;25.30;39.80;;;;;;5070572;28;20044;-62
2022/07/08 12:44:31;;;;;;;3.90;1.30;;;25.30;39.50;;;;;;5055964;28;20072;-63
2022/07/08 12:46:58;;;;;;;2.83;0.70;;;25.30;39.40;;;;;;5050259;28;20048;-63
2022/07/08 12:49:26;;;;;;;3.42;0.77;;;25.40;39.40;;;;;;5045015;28;20483;-61
2022/07/08 12:51:53;;;;;;;4.75;0.80;;;25.30;39.30;;;;;;5048492;28;20041;-62
2022/07/08 12:54:20;;;;;;;1.90;0.75;;;25.40;39.50;;;;;;5046533;28;20060;-63
2022/07/08 12:56:48;;;;;;;2.97;1.25;;;25.30;39.20;;;;;;5048628;28;20057;-63